Terminal Aerodrome Forecast
Issued by NWS Shreveport, LA

Home | Current Version | Previous Version | Text Only | Print | Product List | Glossary On
Versions: 1 2 3 4 5 6 7 8 9 10 11 12 13 14
000
FTUS44 KSHV 271520 AAA
TAFELD
TAF AMD
KELD 271520Z 2715/2812 02005KT P6SM BKN060
     FM271700 01005KT P6SM SCT060 BKN250
     FM271900 34005KT P6SM BKN250
     FM280000 VRB03KT P6SM BKN250
     FM280600 00000KT P6SM SKC=

USA.gov is the U.S. government's official web portal to all federal, state and local government web resources and services.